sensor_id;sensor_type;location;lat;lon;timestamp;P1;durP1;ratioP1;P2;durP2;ratioP2
10985;SDS011;5546;48.714;8.738;2023-02-28T00:00:20;4.27;;;2.40;;
10985;SDS011;5546;48.714;8.738;2023-02-28T00:02:47;4.70;;;2.70;;
10985;SDS011;5546;48.714;8.738;2023-02-28T00:05:13;3.93;;;2.90;;
10985;SDS011;5546;48.714;8.738;2023-02-28T00:07:41;3.17;;;2.57;;
10985;SDS011;5546;48.714;8.738;2023-02-28T00:10:08;6.60;;;2.80;;
10985;SDS011;5546;48.714;8.738;2023-02-28T00:12:36;3.53;;;2.53;;
10985;SDS011;5546;48.714;8.738;2023-02-28T00:15:04;4.40;;;2.80;;
10985;SDS011;5546;48.714;8.738;2023-02-28T00:17:31;3.33;;;2.70;;
10985;SDS011;5546;48.714;8.738;2023-02-28T00:19:56;3.80;;;2.47;;
10985;SDS011;5546;48.714;8.738;2023-02-28T00:22:26;3.60;;;2.60;;
10985;SDS011;5546;48.714;8.738;2023-02-28T00:24:52;4.37;;;2.70;;
10985;SDS011;5546;48.714;8.738;2023-02-28T00:27:18;5.43;;;2.77;;
10985;SDS011;5546;48.714;8.738;2023-02-28T00:29:45;3.70;;;2.73;;
10985;SDS011;5546;48.714;8.738;2023-02-28T00:32:11;5.13;;;2.90;;
10985;SDS011;5546;48.714;8.738;2023-02-28T00:34:37;3.30;;;2.53;;
10985;SDS011;5546;48.714;8.738;2023-02-28T00:37:04;4.87;;;2.60;;
10985;SDS011;5546;48.714;8.738;2023-02-28T00:39:30;4.77;;;2.40;;
10985;SDS011;5546;48.714;8.738;2023-02-28T00:41:56;4.10;;;2.33;;
10985;SDS011;5546;48.714;8.738;2023-02-28T00:44:22;3.60;;;2.43;;
10985;SDS011;5546;48.714;8.738;2023-02-28T00:46:48;3.00;;;2.30;;
10985;SDS011;5546;48.714;8.738;2023-02-28T00:49:13;3.20;;;2.53;;
10985;SDS011;5546;48.714;8.738;2023-02-28T00:51:39;2.20;;;2.00;;
10985;SDS011;5546;48.714;8.738;2023-02-28T00:54:04;4.33;;;2.73;;
10985;SDS011;5546;48.714;8.738;2023-02-28T00:56:30;3.30;;;2.70;;
10985;SDS011;5546;48.714;8.738;2023-02-28T00:58:56;4.63;;;2.57;;
10985;SDS011;5546;48.714;8.738;2023-02-28T01:01:22;3.80;;;2.53;;
10985;SDS011;5546;48.714;8.738;2023-02-28T01:03:48;4.40;;;2.40;;
10985;SDS011;5546;48.714;8.738;2023-02-28T01:06:14;3.03;;;2.40;;
10985;SDS011;5546;48.714;8.738;2023-02-28T01:08:40;3.33;;;2.50;;
10985;SDS011;5546;48.714;8.738;2023-02-28T01:11:10;5.37;;;2.50;;
10985;SDS011;5546;48.714;8.738;2023-02-28T01:13:37;4.07;;;2.60;;
10985;SDS011;5546;48.714;8.738;2023-02-28T01:16:02;3.50;;;2.60;;
10985;SDS011;5546;48.714;8.738;2023-02-28T01:18:28;3.77;;;2.57;;
10985;SDS011;5546;48.714;8.738;2023-02-28T01:20:54;4.20;;;2.30;;
10985;SDS011;5546;48.714;8.738;2023-02-28T01:23:20;3.57;;;2.70;;
10985;SDS011;5546;48.714;8.738;2023-02-28T01:25:48;4.90;;;2.60;;
10985;SDS011;5546;48.714;8.738;2023-02-28T01:28:15;5.20;;;2.80;;
10985;SDS011;5546;48.714;8.738;2023-02-28T01:30:40;3.67;;;2.80;;
10985;SDS011;5546;48.714;8.738;2023-02-28T01:33:06;4.67;;;2.97;;
10985;SDS011;5546;48.714;8.738;2023-02-28T01:35:35;3.93;;;3.40;;
10985;SDS011;5546;48.714;8.738;2023-02-28T01:38:01;4.07;;;2.80;;
10985;SDS011;5546;48.714;8.738;2023-02-28T01:40:27;3.53;;;2.50;;
10985;SDS011;5546;48.714;8.738;2023-02-28T01:42:53;3.07;;;2.50;;
10985;SDS011;5546;48.714;8.738;2023-02-28T01:47:44;3.40;;;2.80;;
10985;SDS011;5546;48.714;8.738;2023-02-28T01:50:12;4.23;;;3.10;;
10985;SDS011;5546;48.714;8.738;2023-02-28T01:52:43;4.17;;;2.93;;
10985;SDS011;5546;48.714;8.738;2023-02-28T01:55:10;4.10;;;3.00;;
10985;SDS011;5546;48.714;8.738;2023-02-28T01:57:42;5.47;;;3.23;;
10985;SDS011;5546;48.714;8.738;2023-02-28T02:00:16;3.30;;;2.80;;
10985;SDS011;5546;48.714;8.738;2023-02-28T02:02:46;4.03;;;2.90;;
10985;SDS011;5546;48.714;8.738;2023-02-28T02:05:15;5.67;;;3.40;;
10985;SDS011;5546;48.714;8.738;2023-02-28T02:07:46;7.43;;;3.40;;
10985;SDS011;5546;48.714;8.738;2023-02-28T02:10:27;3.20;;;2.80;;
10985;SDS011;5546;48.714;8.738;2023-02-28T02:16:16;5.40;;;3.03;;
10985;SDS011;5546;48.714;8.738;2023-02-28T02:19:11;4.20;;;3.40;;
10985;SDS011;5546;48.714;8.738;2023-02-28T02:24:19;4.30;;;3.40;;
10985;SDS011;5546;48.714;8.738;2023-02-28T02:41:09;5.77;;;4.10;;
10985;SDS011;5546;48.714;8.738;2023-02-28T02:43:48;4.63;;;3.50;;
10985;SDS011;5546;48.714;8.738;2023-02-28T02:46:34;4.63;;;3.50;;
10985;SDS011;5546;48.714;8.738;2023-02-28T02:49:04;4.83;;;3.60;;
10985;SDS011;5546;48.714;8.738;2023-02-28T02:51:34;7.17;;;3.60;;
10985;SDS011;5546;48.714;8.738;2023-02-28T02:54:21;4.23;;;3.70;;
10985;SDS011;5546;48.714;8.738;2023-02-28T02:56:53;4.97;;;3.77;;
10985;SDS011;5546;48.714;8.738;2023-02-28T02:59:23;10.07;;;4.00;;
10985;SDS011;5546;48.714;8.738;2023-02-28T03:01:52;5.87;;;4.10;;
10985;SDS011;5546;48.714;8.738;2023-02-28T03:04:22;6.40;;;4.20;;
10985;SDS011;5546;48.714;8.738;2023-02-28T03:06:50;5.20;;;4.03;;
10985;SDS011;5546;48.714;8.738;2023-02-28T03:09:19;5.80;;;3.70;;
10985;SDS011;5546;48.714;8.738;2023-02-28T03:11:45;6.37;;;4.10;;
10985;SDS011;5546;48.714;8.738;2023-02-28T03:17:00;4.50;;;3.57;;
10985;SDS011;5546;48.714;8.738;2023-02-28T03:19:45;5.70;;;3.70;;
10985;SDS011;5546;48.714;8.738;2023-02-28T03:24:56;4.53;;;4.07;;
10985;SDS011;5546;48.714;8.738;2023-02-28T03:27:36;4.73;;;3.70;;
10985;SDS011;5546;48.714;8.738;2023-02-28T03:30:24;5.83;;;3.70;;
10985;SDS011;5546;48.714;8.738;2023-02-28T03:33:11;4.17;;;3.77;;
10985;SDS011;5546;48.714;8.738;2023-02-28T03:35:45;6.00;;;4.00;;
10985;SDS011;5546;48.714;8.738;2023-02-28T03:38:22;5.60;;;3.83;;
10985;SDS011;5546;48.714;8.738;2023-02-28T03:43:41;5.47;;;3.63;;
10985;SDS011;5546;48.714;8.738;2023-02-28T03:46:10;6.43;;;3.90;;
10985;SDS011;5546;48.714;8.738;2023-02-28T03:48:40;4.63;;;4.00;;
10985;SDS011;5546;48.714;8.738;2023-02-28T03:51:10;4.37;;;3.60;;
10985;SDS011;5546;48.714;8.738;2023-02-28T03:53:42;6.07;;;4.10;;
10985;SDS011;5546;48.714;8.738;2023-02-28T03:56:27;5.93;;;4.00;;
10985;SDS011;5546;48.714;8.738;2023-02-28T03:59:00;5.97;;;3.97;;
10985;SDS011;5546;48.714;8.738;2023-02-28T04:01:33;5.97;;;4.30;;
10985;SDS011;5546;48.714;8.738;2023-02-28T04:04:02;4.40;;;3.97;;
10985;SDS011;5546;48.714;8.738;2023-02-28T04:06:29;5.57;;;4.23;;
10985;SDS011;5546;48.714;8.738;2023-02-28T04:08:56;8.30;;;4.33;;
10985;SDS011;5546;48.714;8.738;2023-02-28T04:11:25;7.67;;;4.67;;
10985;SDS011;5546;48.714;8.738;2023-02-28T04:13:53;5.67;;;4.13;;
10985;SDS011;5546;48.714;8.738;2023-02-28T04:16:18;6.57;;;4.30;;
10985;SDS011;5546;48.714;8.738;2023-02-28T04:18:44;5.37;;;4.53;;
10985;SDS011;5546;48.714;8.738;2023-02-28T04:21:10;6.23;;;4.70;;
10985;SDS011;5546;48.714;8.738;2023-02-28T04:23:36;6.53;;;4.43;;
10985;SDS011;5546;48.714;8.738;2023-02-28T04:26:02;6.57;;;5.00;;
10985;SDS011;5546;48.714;8.738;2023-02-28T04:28:28;6.53;;;4.63;;
10985;SDS011;5546;48.714;8.738;2023-02-28T04:30:58;7.03;;;4.57;;
10985;SDS011;5546;48.714;8.738;2023-02-28T04:33:26;5.67;;;4.63;;
10985;SDS011;5546;48.714;8.738;2023-02-28T04:36:01;4.90;;;4.40;;
10985;SDS011;5546;48.714;8.738;2023-02-28T04:38:29;6.03;;;4.47;;
10985;SDS011;5546;48.714;8.738;2023-02-28T04:40:58;5.43;;;4.67;;
10985;SDS011;5546;48.714;8.738;2023-02-28T04:43:28;8.50;;;5.13;;
10985;SDS011;5546;48.714;8.738;2023-02-28T04:45:55;6.10;;;5.00;;
10985;SDS011;5546;48.714;8.738;2023-02-28T04:48:25;6.27;;;4.83;;
10985;SDS011;5546;48.714;8.738;2023-02-28T04:50:52;6.93;;;5.10;;
10985;SDS011;5546;48.714;8.738;2023-02-28T04:53:18;8.07;;;5.30;;
10985;SDS011;5546;48.714;8.738;2023-02-28T04:55:44;6.50;;;4.73;;
10985;SDS011;5546;48.714;8.738;2023-02-28T04:58:10;7.53;;;5.10;;
10985;SDS011;5546;48.714;8.738;2023-02-28T05:00:36;6.63;;;5.00;;
10985;SDS011;5546;48.714;8.738;2023-02-28T05:03:02;8.37;;;4.60;;
10985;SDS011;5546;48.714;8.738;2023-02-28T05:05:28;5.87;;;4.80;;
10985;SDS011;5546;48.714;8.738;2023-02-28T05:07:54;7.20;;;4.93;;
10985;SDS011;5546;48.714;8.738;2023-02-28T05:10:21;7.53;;;5.77;;
10985;SDS011;5546;48.714;8.738;2023-02-28T05:12:47;5.63;;;4.80;;
10985;SDS011;5546;48.714;8.738;2023-02-28T05:15:13;7.57;;;5.40;;
10985;SDS011;5546;48.714;8.738;2023-02-28T05:17:40;10.30;;;5.63;;
10985;SDS011;5546;48.714;8.738;2023-02-28T05:20:07;5.87;;;4.80;;
10985;SDS011;5546;48.714;8.738;2023-02-28T05:22:39;6.67;;;4.87;;
10985;SDS011;5546;48.714;8.738;2023-02-28T05:25:06;6.43;;;5.07;;
10985;SDS011;5546;48.714;8.738;2023-02-28T05:27:34;6.77;;;5.40;;
10985;SDS011;5546;48.714;8.738;2023-02-28T05:29:59;7.33;;;5.20;;
10985;SDS011;5546;48.714;8.738;2023-02-28T05:32:28;7.10;;;5.60;;
10985;SDS011;5546;48.714;8.738;2023-02-28T05:34:54;7.63;;;5.80;;
10985;SDS011;5546;48.714;8.738;2023-02-28T05:37:19;6.90;;;5.40;;
10985;SDS011;5546;48.714;8.738;2023-02-28T05:39:45;6.33;;;4.80;;
10985;SDS011;5546;48.714;8.738;2023-02-28T05:42:11;7.83;;;5.57;;
10985;SDS011;5546;48.714;8.738;2023-02-28T05:44:37;6.47;;;5.27;;
10985;SDS011;5546;48.714;8.738;2023-02-28T05:47:03;9.93;;;5.53;;
10985;SDS011;5546;48.714;8.738;2023-02-28T05:49:28;7.17;;;5.13;;
10985;SDS011;5546;48.714;8.738;2023-02-28T05:51:54;6.67;;;5.13;;
10985;SDS011;5546;48.714;8.738;2023-02-28T05:54:20;6.93;;;4.97;;
10985;SDS011;5546;48.714;8.738;2023-02-28T05:56:46;10.17;;;5.27;;
10985;SDS011;5546;48.714;8.738;2023-02-28T05:59:12;9.50;;;6.27;;
10985;SDS011;5546;48.714;8.738;2023-02-28T06:01:40;6.97;;;5.37;;
10985;SDS011;5546;48.714;8.738;2023-02-28T06:04:13;9.23;;;5.63;;
10985;SDS011;5546;48.714;8.738;2023-02-28T06:06:42;8.03;;;5.53;;
10985;SDS011;5546;48.714;8.738;2023-02-28T06:09:08;7.30;;;5.53;;
10985;SDS011;5546;48.714;8.738;2023-02-28T06:11:34;7.23;;;5.67;;
10985;SDS011;5546;48.714;8.738;2023-02-28T06:14:01;8.17;;;5.63;;
10985;SDS011;5546;48.714;8.738;2023-02-28T06:16:27;7.60;;;5.10;;
10985;SDS011;5546;48.714;8.738;2023-02-28T06:18:54;9.43;;;5.60;;
10985;SDS011;5546;48.714;8.738;2023-02-28T06:21:21;8.13;;;5.80;;
10985;SDS011;5546;48.714;8.738;2023-02-28T06:23:47;7.20;;;5.87;;
10985;SDS011;5546;48.714;8.738;2023-02-28T06:26:13;9.07;;;5.83;;
10985;SDS011;5546;48.714;8.738;2023-02-28T06:28:39;8.43;;;6.10;;
10985;SDS011;5546;48.714;8.738;2023-02-28T06:31:11;7.43;;;6.00;;
10985;SDS011;5546;48.714;8.738;2023-02-28T06:33:38;8.33;;;6.00;;
10985;SDS011;5546;48.714;8.738;2023-02-28T06:36:05;9.60;;;6.33;;
10985;SDS011;5546;48.714;8.738;2023-02-28T06:38:31;8.67;;;6.63;;
10985;SDS011;5546;48.714;8.738;2023-02-28T06:40:57;9.63;;;6.07;;
10985;SDS011;5546;48.714;8.738;2023-02-28T06:43:24;7.07;;;6.20;;
10985;SDS011;5546;48.714;8.738;2023-02-28T06:45:54;9.67;;;6.40;;
10985;SDS011;5546;48.714;8.738;2023-02-28T06:48:20;10.60;;;5.60;;
10985;SDS011;5546;48.714;8.738;2023-02-28T06:50:46;10.30;;;5.93;;
10985;SDS011;5546;48.714;8.738;2023-02-28T06:53:12;7.33;;;6.00;;
10985;SDS011;5546;48.714;8.738;2023-02-28T06:55:38;8.03;;;6.30;;
10985;SDS011;5546;48.714;8.738;2023-02-28T06:58:04;7.80;;;6.50;;
10985;SDS011;5546;48.714;8.738;2023-02-28T07:00:42;8.83;;;6.63;;
10985;SDS011;5546;48.714;8.738;2023-02-28T07:03:08;8.33;;;7.00;;
10985;SDS011;5546;48.714;8.738;2023-02-28T07:05:35;8.70;;;6.67;;
10985;SDS011;5546;48.714;8.738;2023-02-28T07:08:01;9.80;;;6.23;;
10985;SDS011;5546;48.714;8.738;2023-02-28T07:10:28;8.10;;;5.80;;
10985;SDS011;5546;48.714;8.738;2023-02-28T07:12:53;8.50;;;6.17;;
10985;SDS011;5546;48.714;8.738;2023-02-28T07:15:19;9.50;;;6.20;;
10985;SDS011;5546;48.714;8.738;2023-02-28T07:17:45;9.27;;;5.80;;
10985;SDS011;5546;48.714;8.738;2023-02-28T07:20:10;8.40;;;6.30;;
10985;SDS011;5546;48.714;8.738;2023-02-28T07:22:36;8.23;;;6.23;;
10985;SDS011;5546;48.714;8.738;2023-02-28T07:25:03;8.67;;;6.13;;
10985;SDS011;5546;48.714;8.738;2023-02-28T07:27:29;8.80;;;6.13;;
10985;SDS011;5546;48.714;8.738;2023-02-28T07:29:55;8.93;;;7.13;;
10985;SDS011;5546;48.714;8.738;2023-02-28T07:32:20;10.03;;;7.17;;
10985;SDS011;5546;48.714;8.738;2023-02-28T07:34:46;10.87;;;6.07;;
10985;SDS011;5546;48.714;8.738;2023-02-28T07:37:13;10.03;;;6.97;;
10985;SDS011;5546;48.714;8.738;2023-02-28T07:39:39;9.60;;;6.87;;
10985;SDS011;5546;48.714;8.738;2023-02-28T07:42:07;8.77;;;6.43;;
10985;SDS011;5546;48.714;8.738;2023-02-28T07:44:36;7.67;;;6.30;;
10985;SDS011;5546;48.714;8.738;2023-02-28T07:47:05;9.93;;;6.43;;
10985;SDS011;5546;48.714;8.738;2023-02-28T07:49:31;8.40;;;6.77;;
10985;SDS011;5546;48.714;8.738;2023-02-28T07:51:57;7.37;;;6.10;;
10985;SDS011;5546;48.714;8.738;2023-02-28T07:54:22;8.53;;;6.13;;
10985;SDS011;5546;48.714;8.738;2023-02-28T07:56:48;10.50;;;7.13;;
10985;SDS011;5546;48.714;8.738;2023-02-28T07:59:14;12.20;;;8.30;;
10985;SDS011;5546;48.714;8.738;2023-02-28T08:01:40;10.23;;;6.93;;
10985;SDS011;5546;48.714;8.738;2023-02-28T08:04:06;8.37;;;6.33;;
10985;SDS011;5546;48.714;8.738;2023-02-28T08:06:32;9.20;;;6.63;;
10985;SDS011;5546;48.714;8.738;2023-02-28T08:08:57;6.67;;;5.17;;
10985;SDS011;5546;48.714;8.738;2023-02-28T08:11:23;13.27;;;6.83;;
10985;SDS011;5546;48.714;8.738;2023-02-28T08:13:49;8.90;;;6.20;;
10985;SDS011;5546;48.714;8.738;2023-02-28T08:16:15;8.40;;;6.20;;
10985;SDS011;5546;48.714;8.738;2023-02-28T08:18:46;8.10;;;5.60;;
10985;SDS011;5546;48.714;8.738;2023-02-28T08:21:13;10.37;;;6.60;;
10985;SDS011;5546;48.714;8.738;2023-02-28T08:23:38;10.17;;;6.20;;
10985;SDS011;5546;48.714;8.738;2023-02-28T08:26:04;10.10;;;6.37;;
10985;SDS011;5546;48.714;8.738;2023-02-28T08:28:30;8.93;;;6.30;;
10985;SDS011;5546;48.714;8.738;2023-02-28T08:30:55;9.13;;;6.80;;
10985;SDS011;5546;48.714;8.738;2023-02-28T08:33:21;10.37;;;6.87;;
10985;SDS011;5546;48.714;8.738;2023-02-28T08:35:48;8.10;;;6.40;;
10985;SDS011;5546;48.714;8.738;2023-02-28T08:38:14;11.13;;;6.67;;
10985;SDS011;5546;48.714;8.738;2023-02-28T08:40:39;7.97;;;5.53;;
10985;SDS011;5546;48.714;8.738;2023-02-28T08:43:05;9.37;;;6.50;;
10985;SDS011;5546;48.714;8.738;2023-02-28T08:45:31;10.17;;;6.33;;
10985;SDS011;5546;48.714;8.738;2023-02-28T08:47:57;9.60;;;6.70;;
10985;SDS011;5546;48.714;8.738;2023-02-28T08:50:23;13.73;;;6.63;;
10985;SDS011;5546;48.714;8.738;2023-02-28T08:52:48;10.17;;;6.70;;
10985;SDS011;5546;48.714;8.738;2023-02-28T08:55:14;11.10;;;7.60;;
10985;SDS011;5546;48.714;8.738;2023-02-28T08:57:40;9.23;;;7.07;;
10985;SDS011;5546;48.714;8.738;2023-02-28T09:00:06;9.83;;;6.97;;
10985;SDS011;5546;48.714;8.738;2023-02-28T09:02:33;10.20;;;6.73;;
10985;SDS011;5546;48.714;8.738;2023-02-28T09:04:58;10.77;;;7.33;;
10985;SDS011;5546;48.714;8.738;2023-02-28T09:07:24;10.67;;;6.93;;
10985;SDS011;5546;48.714;8.738;2023-02-28T09:09:50;11.43;;;7.13;;
10985;SDS011;5546;48.714;8.738;2023-02-28T09:12:23;9.80;;;7.30;;
10985;SDS011;5546;48.714;8.738;2023-02-28T09:14:50;9.83;;;7.20;;
10985;SDS011;5546;48.714;8.738;2023-02-28T09:17:16;9.83;;;7.50;;
10985;SDS011;5546;48.714;8.738;2023-02-28T09:19:42;9.83;;;8.27;;
10985;SDS011;5546;48.714;8.738;2023-02-28T09:22:09;10.37;;;7.43;;
10985;SDS011;5546;48.714;8.738;2023-02-28T09:24:36;10.10;;;7.10;;
10985;SDS011;5546;48.714;8.738;2023-02-28T09:27:02;11.30;;;6.73;;
10985;SDS011;5546;48.714;8.738;2023-02-28T09:29:28;11.80;;;8.37;;
10985;SDS011;5546;48.714;8.738;2023-02-28T09:31:54;10.07;;;7.57;;
10985;SDS011;5546;48.714;8.738;2023-02-28T09:34:23;10.87;;;7.37;;
10985;SDS011;5546;48.714;8.738;2023-02-28T09:36:49;11.23;;;7.03;;
10985;SDS011;5546;48.714;8.738;2023-02-28T09:39:19;10.33;;;7.53;;
10985;SDS011;5546;48.714;8.738;2023-02-28T09:41:46;12.03;;;6.97;;
10985;SDS011;5546;48.714;8.738;2023-02-28T09:44:17;10.87;;;6.63;;
10985;SDS011;5546;48.714;8.738;2023-02-28T09:47:00;10.17;;;7.17;;
10985;SDS011;5546;48.714;8.738;2023-02-28T09:49:37;9.23;;;7.40;;
10985;SDS011;5546;48.714;8.738;2023-02-28T09:52:10;11.63;;;8.07;;
10985;SDS011;5546;48.714;8.738;2023-02-28T09:54:41;13.13;;;7.87;;
10985;SDS011;5546;48.714;8.738;2023-02-28T09:59:44;9.77;;;7.20;;
10985;SDS011;5546;48.714;8.738;2023-02-28T10:02:38;10.10;;;7.70;;
10985;SDS011;5546;48.714;8.738;2023-02-28T10:05:26;9.67;;;7.30;;
10985;SDS011;5546;48.714;8.738;2023-02-28T10:10:44;12.13;;;8.30;;
10985;SDS011;5546;48.714;8.738;2023-02-28T10:16:05;14.27;;;8.30;;
10985;SDS011;5546;48.714;8.738;2023-02-28T10:18:39;10.30;;;7.37;;
10985;SDS011;5546;48.714;8.738;2023-02-28T10:21:19;12.33;;;7.50;;
10985;SDS011;5546;48.714;8.738;2023-02-28T10:23:49;10.37;;;7.43;;
10985;SDS011;5546;48.714;8.738;2023-02-28T10:26:21;11.83;;;8.13;;
10985;SDS011;5546;48.714;8.738;2023-02-28T10:28:48;13.73;;;7.83;;
10985;SDS011;5546;48.714;8.738;2023-02-28T10:31:18;12.73;;;8.63;;
10985;SDS011;5546;48.714;8.738;2023-02-28T10:33:45;11.83;;;7.83;;
10985;SDS011;5546;48.714;8.738;2023-02-28T10:36:18;9.87;;;7.40;;
10985;SDS011;5546;48.714;8.738;2023-02-28T10:38:45;12.33;;;8.30;;
10985;SDS011;5546;48.714;8.738;2023-02-28T10:41:17;10.93;;;8.67;;
10985;SDS011;5546;48.714;8.738;2023-02-28T10:44:17;10.60;;;7.60;;
10985;SDS011;5546;48.714;8.738;2023-02-28T10:46:47;10.17;;;8.00;;
10985;SDS011;5546;48.714;8.738;2023-02-28T10:49:17;13.07;;;8.03;;
10985;SDS011;5546;48.714;8.738;2023-02-28T10:51:47;13.50;;;7.97;;
10985;SDS011;5546;48.714;8.738;2023-02-28T10:54:25;10.07;;;8.00;;
10985;SDS011;5546;48.714;8.738;2023-02-28T10:59:42;12.60;;;8.00;;
10985;SDS011;5546;48.714;8.738;2023-02-28T11:04:55;11.93;;;7.90;;
10985;SDS011;5546;48.714;8.738;2023-02-28T11:07:21;10.67;;;8.00;;
10985;SDS011;5546;48.714;8.738;2023-02-28T11:09:48;10.70;;;8.07;;
10985;SDS011;5546;48.714;8.738;2023-02-28T11:15:00;11.50;;;8.07;;
10985;SDS011;5546;48.714;8.738;2023-02-28T11:17:30;11.03;;;8.30;;
10985;SDS011;5546;48.714;8.738;2023-02-28T11:19:57;13.37;;;8.47;;
10985;SDS011;5546;48.714;8.738;2023-02-28T11:22:28;11.47;;;8.77;;
10985;SDS011;5546;48.714;8.738;2023-02-28T11:24:57;8.83;;;7.30;;
10985;SDS011;5546;48.714;8.738;2023-02-28T11:27:48;12.47;;;8.80;;
10985;SDS011;5546;48.714;8.738;2023-02-28T11:33:01;8.60;;;6.67;;
10985;SDS011;5546;48.714;8.738;2023-02-28T11:35:45;10.33;;;8.50;;
10985;SDS011;5546;48.714;8.738;2023-02-28T11:38:14;15.57;;;9.10;;
10985;SDS011;5546;48.714;8.738;2023-02-28T11:43:13;10.33;;;8.43;;
10985;SDS011;5546;48.714;8.738;2023-02-28T11:48:20;10.30;;;7.67;;
10985;SDS011;5546;48.714;8.738;2023-02-28T12:06:32;10.93;;;9.03;;
10985;SDS011;5546;48.714;8.738;2023-02-28T12:09:17;10.70;;;8.10;;
10985;SDS011;5546;48.714;8.738;2023-02-28T12:15:16;13.97;;;8.43;;
10985;SDS011;5546;48.714;8.738;2023-02-28T12:17:51;10.43;;;7.90;;
10985;SDS011;5546;48.714;8.738;2023-02-28T12:28:38;8.97;;;7.30;;
10985;SDS011;5546;48.714;8.738;2023-02-28T12:33:47;11.03;;;7.37;;
10985;SDS011;5546;48.714;8.738;2023-02-28T12:36:17;8.47;;;7.67;;
10985;SDS011;5546;48.714;8.738;2023-02-28T12:41:39;8.67;;;7.23;;
10985;SDS011;5546;48.714;8.738;2023-02-28T12:44:30;10.57;;;9.53;;
10985;SDS011;5546;48.714;8.738;2023-02-28T12:47:03;8.33;;;7.43;;
10985;SDS011;5546;48.714;8.738;2023-02-28T12:49:31;11.53;;;7.83;;
10985;SDS011;5546;48.714;8.738;2023-02-28T12:52:00;8.23;;;7.40;;
10985;SDS011;5546;48.714;8.738;2023-02-28T12:57:22;9.83;;;7.90;;
10985;SDS011;5546;48.714;8.738;2023-02-28T13:00:01;8.77;;;7.87;;
10985;SDS011;5546;48.714;8.738;2023-02-28T13:08:11;8.80;;;7.90;;
10985;SDS011;5546;48.714;8.738;2023-02-28T13:11:07;10.00;;;7.70;;
10985;SDS011;5546;48.714;8.738;2023-02-28T13:14:03;8.70;;;7.77;;
10985;SDS011;5546;48.714;8.738;2023-02-28T13:16:47;11.13;;;8.77;;
10985;SDS011;5546;48.714;8.738;2023-02-28T13:19:23;11.10;;;9.00;;
10985;SDS011;5546;48.714;8.738;2023-02-28T13:21:54;10.67;;;9.30;;
10985;SDS011;5546;48.714;8.738;2023-02-28T13:24:41;10.70;;;9.20;;
10985;SDS011;5546;48.714;8.738;2023-02-28T13:29:42;10.47;;;9.37;;
10985;SDS011;5546;48.714;8.738;2023-02-28T13:34:35;11.23;;;8.60;;
10985;SDS011;5546;48.714;8.738;2023-02-28T13:39:50;12.43;;;8.93;;
10985;SDS011;5546;48.714;8.738;2023-02-28T13:47:31;8.60;;;7.33;;
10985;SDS011;5546;48.714;8.738;2023-02-28T13:50:14;10.47;;;7.37;;
10985;SDS011;5546;48.714;8.738;2023-02-28T13:55:53;14.03;;;8.20;;
10985;SDS011;5546;48.714;8.738;2023-02-28T14:01:14;11.10;;;7.97;;
10985;SDS011;5546;48.714;8.738;2023-02-28T14:06:37;10.37;;;8.23;;
10985;SDS011;5546;48.714;8.738;2023-02-28T14:11:37;8.93;;;7.83;;
10985;SDS011;5546;48.714;8.738;2023-02-28T14:14:05;10.43;;;8.30;;
10985;SDS011;5546;48.714;8.738;2023-02-28T14:19:12;12.27;;;8.10;;
10985;SDS011;5546;48.714;8.738;2023-02-28T14:22:02;10.73;;;8.77;;
10985;SDS011;5546;48.714;8.738;2023-02-28T14:30:14;10.90;;;8.47;;
10985;SDS011;5546;48.714;8.738;2023-02-28T14:35:40;9.77;;;8.13;;
10985;SDS011;5546;48.714;8.738;2023-02-28T14:38:29;14.70;;;8.60;;
10985;SDS011;5546;48.714;8.738;2023-02-28T14:41:06;12.97;;;7.90;;
10985;SDS011;5546;48.714;8.738;2023-02-28T14:43:47;11.83;;;8.07;;
10985;SDS011;5546;48.714;8.738;2023-02-28T14:46:15;12.50;;;8.10;;
10985;SDS011;5546;48.714;8.738;2023-02-28T14:48:44;9.80;;;7.93;;
10985;SDS011;5546;48.714;8.738;2023-02-28T14:51:11;12.33;;;8.53;;
10985;SDS011;5546;48.714;8.738;2023-02-28T14:53:42;10.53;;;8.23;;
10985;SDS011;5546;48.714;8.738;2023-02-28T14:56:19;13.17;;;9.80;;
10985;SDS011;5546;48.714;8.738;2023-02-28T14:58:51;11.60;;;8.43;;
10985;SDS011;5546;48.714;8.738;2023-02-28T15:01:21;12.67;;;8.43;;
10985;SDS011;5546;48.714;8.738;2023-02-28T15:03:48;10.17;;;8.40;;
10985;SDS011;5546;48.714;8.738;2023-02-28T15:06:22;11.27;;;8.20;;
10985;SDS011;5546;48.714;8.738;2023-02-28T15:09:01;13.47;;;8.27;;
10985;SDS011;5546;48.714;8.738;2023-02-28T15:11:36;9.00;;;7.80;;
10985;SDS011;5546;48.714;8.738;2023-02-28T15:14:03;9.67;;;8.10;;
10985;SDS011;5546;48.714;8.738;2023-02-28T15:17:20;11.53;;;8.17;;
10985;SDS011;5546;48.714;8.738;2023-02-28T15:19:23;12.50;;;7.87;;
10985;SDS011;5546;48.714;8.738;2023-02-28T15:21:54;13.20;;;8.23;;
10985;SDS011;5546;48.714;8.738;2023-02-28T15:24:42;10.47;;;8.17;;
10985;SDS011;5546;48.714;8.738;2023-02-28T15:27:18;10.40;;;7.90;;
10985;SDS011;5546;48.714;8.738;2023-02-28T15:29:47;11.87;;;8.47;;
10985;SDS011;5546;48.714;8.738;2023-02-28T15:34:55;9.70;;;8.13;;
10985;SDS011;5546;48.714;8.738;2023-02-28T15:37:39;11.30;;;9.10;;
10985;SDS011;5546;48.714;8.738;2023-02-28T15:42:59;16.03;;;8.53;;
10985;SDS011;5546;48.714;8.738;2023-02-28T15:45:33;10.67;;;8.03;;
10985;SDS011;5546;48.714;8.738;2023-02-28T15:48:09;12.30;;;8.27;;
10985;SDS011;5546;48.714;8.738;2023-02-28T15:50:51;10.33;;;8.17;;
10985;SDS011;5546;48.714;8.738;2023-02-28T15:53:23;14.40;;;8.27;;
10985;SDS011;5546;48.714;8.738;2023-02-28T15:55:55;9.30;;;7.40;;
10985;SDS011;5546;48.714;8.738;2023-02-28T15:58:26;14.27;;;8.53;;
10985;SDS011;5546;48.714;8.738;2023-02-28T16:01:06;11.87;;;8.10;;
10985;SDS011;5546;48.714;8.738;2023-02-28T16:03:46;14.83;;;7.77;;
10985;SDS011;5546;48.714;8.738;2023-02-28T16:09:18;10.07;;;8.47;;
10985;SDS011;5546;48.714;8.738;2023-02-28T16:11:47;10.57;;;8.23;;
10985;SDS011;5546;48.714;8.738;2023-02-28T16:14:24;9.63;;;8.20;;
10985;SDS011;5546;48.714;8.738;2023-02-28T16:16:53;9.37;;;7.87;;
10985;SDS011;5546;48.714;8.738;2023-02-28T16:19:21;9.60;;;7.70;;
10985;SDS011;5546;48.714;8.738;2023-02-28T16:21:47;10.53;;;8.30;;
10985;SDS011;5546;48.714;8.738;2023-02-28T16:24:14;10.37;;;8.07;;
10985;SDS011;5546;48.714;8.738;2023-02-28T16:26:40;11.70;;;8.73;;
10985;SDS011;5546;48.714;8.738;2023-02-28T16:29:11;13.87;;;8.53;;
10985;SDS011;5546;48.714;8.738;2023-02-28T16:31:39;9.77;;;7.97;;
10985;SDS011;5546;48.714;8.738;2023-02-28T16:34:05;11.53;;;7.80;;
10985;SDS011;5546;48.714;8.738;2023-02-28T16:36:30;10.97;;;8.93;;
10985;SDS011;5546;48.714;8.738;2023-02-28T16:38:56;12.20;;;9.40;;
10985;SDS011;5546;48.714;8.738;2023-02-28T16:41:24;14.60;;;9.57;;
10985;SDS011;5546;48.714;8.738;2023-02-28T16:43:52;11.67;;;9.27;;
10985;SDS011;5546;48.714;8.738;2023-02-28T16:46:23;14.83;;;9.73;;
10985;SDS011;5546;48.714;8.738;2023-02-28T16:48:52;12.80;;;9.70;;
10985;SDS011;5546;48.714;8.738;2023-02-28T16:51:17;12.30;;;8.57;;
10985;SDS011;5546;48.714;8.738;2023-02-28T16:53:43;12.33;;;9.03;;
10985;SDS011;5546;48.714;8.738;2023-02-28T16:56:13;14.03;;;9.17;;
10985;SDS011;5546;48.714;8.738;2023-02-28T16:58:44;14.40;;;9.73;;
10985;SDS011;5546;48.714;8.738;2023-02-28T17:01:09;14.87;;;9.70;;
10985;SDS011;5546;48.714;8.738;2023-02-28T17:03:35;14.40;;;9.57;;
10985;SDS011;5546;48.714;8.738;2023-02-28T17:06:02;13.47;;;9.73;;
10985;SDS011;5546;48.714;8.738;2023-02-28T17:08:28;12.40;;;9.57;;
10985;SDS011;5546;48.714;8.738;2023-02-28T17:10:54;12.43;;;9.87;;
10985;SDS011;5546;48.714;8.738;2023-02-28T17:13:20;15.03;;;10.17;;
10985;SDS011;5546;48.714;8.738;2023-02-28T17:15:46;13.10;;;9.53;;
10985;SDS011;5546;48.714;8.738;2023-02-28T17:18:16;14.20;;;10.43;;
10985;SDS011;5546;48.714;8.738;2023-02-28T17:20:46;12.20;;;10.23;;
10985;SDS011;5546;48.714;8.738;2023-02-28T17:23:13;12.83;;;10.30;;
10985;SDS011;5546;48.714;8.738;2023-02-28T17:25:38;13.90;;;9.97;;
10985;SDS011;5546;48.714;8.738;2023-02-28T17:28:04;13.57;;;9.87;;
10985;SDS011;5546;48.714;8.738;2023-02-28T17:30:30;13.43;;;10.67;;